Time;durP1;ratioP1;P1;durP2;ratioP2;P2;SDS_P1;SDS_P2;PMS_P1;PMS_P2;Temp;Humidity;BMP_temperature;BMP_pressure;BME280_temperature;BME280_humidity;BME280_pressure;Samples;Min_cycle;Max_cycle;Signal;HPM_P1;HPM_P2
2021/06/24 00:02:05;;;;;;;14.27;13.27;;;17.20;71.30;;;;;;5158023;28;20066;-72
2021/06/24 00:04:37;;;;;;;14.38;13.38;;;17.10;71.80;;;;;;5162849;28;20058;-70
2021/06/24 00:07:09;;;;;;;14.02;13.02;;;17.00;71.80;;;;;;5158651;28;20070;-70
2021/06/24 00:09:41;;;;;;;14.18;13.18;;;17.00;72.20;;;;;;5160358;28;20050;-70
2021/06/24 00:12:13;;;;;;;13.98;12.98;;;16.90;72.10;;;;;;5157629;28;20129;-70
2021/06/24 00:14:44;;;;;;;13.82;12.82;;;16.90;71.90;;;;;;5160508;28;20480;-69
2021/06/24 00:17:16;;;;;;;13.80;12.80;;;16.90;72.10;;;;;;5158276;28;20041;-70
2021/06/24 00:19:48;;;;;;;14.48;13.48;;;16.90;72.00;;;;;;5160825;28;20104;-71
2021/06/24 00:22:20;;;;;;;13.88;12.88;;;16.90;72.40;;;;;;5160464;28;20073;-71
2021/06/24 00:24:52;;;;;;;14.02;12.93;;;16.90;72.80;;;;;;5162684;28;20123;-70
2021/06/24 00:27:24;;;;;;;13.95;12.95;;;16.90;72.60;;;;;;5159968;28;20039;-70
2021/06/24 00:29:56;;;;;;;13.57;12.57;;;16.90;72.70;;;;;;5165171;28;20069;-70
2021/06/24 00:32:28;;;;;;;13.95;12.95;;;17.00;72.90;;;;;;5163459;28;20053;-70
2021/06/24 00:35:01;;;;;;;14.02;12.93;;;16.90;73.20;;;;;;5165509;28;20121;-70
2021/06/24 00:37:35;;;;;;;14.13;12.85;;;16.90;73.50;;;;;;5162577;28;20132;-71
2021/06/24 00:40:09;;;;;;;13.90;12.90;;;16.90;73.30;;;;;;5160782;28;20050;-69
2021/06/24 00:42:42;;;;;;;13.80;12.80;;;16.80;74.00;;;;;;5163614;28;20057;-70
2021/06/24 00:45:15;;;;;;;13.82;12.82;;;16.70;74.00;;;;;;5162344;28;20045;-70
2021/06/24 00:47:48;;;;;;;13.95;12.95;;;16.70;74.00;;;;;;5159976;28;20561;-71
2021/06/24 00:50:21;;;;;;;14.00;13.00;;;16.70;73.50;;;;;;5160967;28;20393;-71
2021/06/24 00:52:53;;;;;;;14.00;13.00;;;16.60;72.70;;;;;;5163277;28;20530;-70
2021/06/24 00:55:44;;;;;;;13.90;12.90;;;16.60;71.90;;;;;;5150785;28;20153;-70
2021/06/24 00:58:23;;;;;;;13.50;12.55;;;16.60;72.10;;;;;;5132572;28;20133;-70
2021/06/24 01:00:57;;;;;;;14.02;13.02;;;16.50;72.60;;;;;;5162557;28;20127;-69
2021/06/24 01:03:43;;;;;;;14.10;13.02;;;16.50;72.80;;;;;;5161067;28;20046;-70
2021/06/24 01:06:15;;;;;;;14.52;13.32;;;16.50;72.50;;;;;;5161447;28;20034;-69
2021/06/24 01:08:47;;;;;;;13.82;12.82;;;16.40;73.60;;;;;;5143215;28;20038;-69
2021/06/24 01:11:23;;;;;;;14.35;13.15;;;16.40;72.70;;;;;;5163094;28;20044;-69
2021/06/24 01:13:56;;;;;;;14.65;13.40;;;16.40;73.60;;;;;;5159945;28;20137;-70
2021/06/24 01:16:28;;;;;;;14.30;13.20;;;16.40;73.30;;;;;;5159027;28;20058;-69
2021/06/24 01:19:01;;;;;;;14.20;13.20;;;16.40;73.60;;;;;;5161608;28;20062;-69
2021/06/24 01:21:34;;;;;;;14.35;13.25;;;16.40;73.50;;;;;;5146599;28;20046;-69
2021/06/24 01:24:06;;;;;;;14.27;13.18;;;16.40;73.90;;;;;;5165743;28;20062;-70
2021/06/24 01:26:41;;;;;;;14.30;13.20;;;16.40;73.90;;;;;;5159299;28;20070;-70
2021/06/24 01:29:14;;;;;;;14.07;12.90;;;16.40;74.40;;;;;;5159783;28;20101;-69
2021/06/24 01:31:46;;;;;;;14.32;13.15;;;16.30;75.00;;;;;;5159133;28;20507;-71
2021/06/24 01:34:18;;;;;;;14.10;13.10;;;16.20;75.30;;;;;;5160298;28;20125;-72
2021/06/24 01:36:51;;;;;;;13.68;12.68;;;16.20;75.50;;;;;;5164946;28;20061;-70
2021/06/24 01:39:23;;;;;;;14.18;13.00;;;16.10;75.00;;;;;;5160201;28;20049;-70
2021/06/24 01:41:58;;;;;;;14.02;12.93;;;16.10;74.80;;;;;;5163648;28;20726;-70
2021/06/24 01:44:35;;;;;;;13.88;12.77;;;16.00;75.40;;;;;;5144539;28;20054;-70
2021/06/24 01:47:11;;;;;;;13.85;12.75;;;16.00;74.90;;;;;;5147792;28;20053;-70
2021/06/24 01:49:43;;;;;;;13.45;12.45;;;15.90;75.30;;;;;;5164815;28;20038;-69
2021/06/24 01:52:16;;;;;;;14.00;13.00;;;15.90;75.00;;;;;;5159543;28;20066;-70
2021/06/24 01:54:48;;;;;;;13.75;12.75;;;15.80;75.30;;;;;;5158128;28;20046;-71
2021/06/24 01:57:22;;;;;;;13.32;12.35;;;15.80;75.30;;;;;;5159525;28;20057;-70
2021/06/24 01:59:59;;;;;;;13.68;12.68;;;15.80;75.90;;;;;;5158613;28;20515;-70
2021/06/24 02:02:32;;;;;;;13.95;12.77;;;15.70;75.80;;;;;;5151709;28;20058;-71
2021/06/24 02:05:10;;;;;;;13.55;12.55;;;15.70;76.00;;;;;;5150312;28;20062;-70
2021/06/24 02:07:44;;;;;;;13.65;12.65;;;15.60;76.20;;;;;;5159190;28;20733;-71
2021/06/24 02:10:30;;;;;;;13.45;12.45;;;15.60;76.30;;;;;;5158772;28;20447;-71
2021/06/24 02:13:03;;;;;;;13.68;12.68;;;15.40;76.60;;;;;;5161880;28;20045;-71
2021/06/24 02:15:36;;;;;;;13.20;12.20;;;15.30;76.50;;;;;;5174457;28;20046;-71
2021/06/24 02:18:09;;;;;;;13.23;12.32;;;15.30;76.10;;;;;;5145520;28;20052;-70
2021/06/24 02:20:46;;;;;;;13.48;12.48;;;15.20;76.00;;;;;;5159870;28;20062;-70
2021/06/24 02:23:26;;;;;;;13.35;12.35;;;15.10;76.00;;;;;;5144429;28;20046;-69
2021/06/24 02:26:11;;;;;;;12.98;12.07;;;15.00;76.20;;;;;;5154822;28;20133;-70
2021/06/24 02:28:49;;;;;;;13.23;12.23;;;15.00;76.50;;;;;;5159043;28;20136;-70
2021/06/24 02:31:27;;;;;;;12.98;12.07;;;14.90;76.90;;;;;;5160127;28;20042;-71
2021/06/24 02:34:05;;;;;;;13.93;12.70;;;14.80;76.70;;;;;;5159403;28;20049;-70
2021/06/24 02:36:54;;;;;;;13.40;12.40;;;14.80;76.90;;;;;;5157078;28;20052;-70
2021/06/24 02:39:40;;;;;;;13.50;12.50;;;14.80;77.40;;;;;;5159617;28;20140;-69
2021/06/24 02:42:12;;;;;;;13.23;12.20;;;14.70;77.30;;;;;;5155587;28;20137;-69
2021/06/24 02:44:45;;;;;;;13.07;12.15;;;14.70;77.20;;;;;;5160736;28;20054;-70
2021/06/24 02:47:18;;;;;;;12.93;12.02;;;14.60;77.20;;;;;;5159305;28;20440;-70
2021/06/24 02:49:50;;;;;;;12.88;11.85;;;14.60;77.00;;;;;;5142898;28;20453;-70
2021/06/24 02:52:23;;;;;;;12.90;12.00;;;14.50;77.10;;;;;;5144501;28;20051;-69
2021/06/24 02:54:55;;;;;;;13.25;12.02;;;14.50;77.00;;;;;;5163758;28;20045;-69
2021/06/24 02:57:38;;;;;;;13.02;12.13;;;14.40;77.00;;;;;;5164444;28;20050;-70
2021/06/24 03:00:45;;;;;;;12.90;11.90;;;14.40;77.00;;;;;;5159899;28;20042;-70
2021/06/24 03:03:41;;;;;;;13.52;12.38;;;14.40;77.00;;;;;;5152942;28;20081;-70
2021/06/24 03:06:22;;;;;;;12.90;12.00;;;14.30;77.20;;;;;;5158566;28;20046;-70
2021/06/24 03:08:56;;;;;;;13.13;12.02;;;14.30;77.10;;;;;;5158060;28;20046;-70
2021/06/24 03:11:32;;;;;;;13.13;12.23;;;14.20;77.20;;;;;;5160536;28;20046;-72
2021/06/24 03:14:08;;;;;;;13.20;12.18;;;14.20;77.00;;;;;;5159103;28;20432;-71
2021/06/24 03:16:44;;;;;;;13.07;12.07;;;14.20;76.90;;;;;;5175657;28;20051;-70
2021/06/24 03:19:22;;;;;;;12.90;12.00;;;14.20;77.00;;;;;;5159613;28;20046;-70
2021/06/24 03:22:06;;;;;;;12.95;11.95;;;14.10;76.90;;;;;;5159302;28;20050;-71
2021/06/24 03:24:51;;;;;;;13.23;12.30;;;14.10;77.10;;;;;;5157673;28;20042;-71
2021/06/24 03:27:28;;;;;;;13.00;12.10;;;14.00;77.30;;;;;;5141889;28;20409;-69
2021/06/24 03:30:21;;;;;;;12.75;11.77;;;14.00;77.30;;;;;;5160130;28;20053;-70
2021/06/24 03:32:53;;;;;;;13.00;12.10;;;14.00;77.40;;;;;;5161320;28;20046;-70
2021/06/24 03:35:25;;;;;;;13.13;12.23;;;14.00;78.90;;;;;;5163005;28;20030;-70
2021/06/24 03:37:57;;;;;;;12.82;11.93;;;14.00;78.00;;;;;;5158335;28;20050;-69
2021/06/24 03:40:30;;;;;;;12.65;11.65;;;14.10;78.50;;;;;;5163987;28;20118;-70
2021/06/24 03:43:07;;;;;;;12.73;11.80;;;14.10;77.30;;;;;;5158526;28;20132;-70
2021/06/24 03:45:40;;;;;;;13.30;12.30;;;14.00;77.50;;;;;;5142547;28;20143;-70
2021/06/24 03:48:12;;;;;;;12.65;11.75;;;14.10;77.00;;;;;;5155947;28;20516;-71
2021/06/24 03:50:45;;;;;;;12.70;11.73;;;14.00;78.20;;;;;;5159677;28;20085;-70
2021/06/24 03:53:17;;;;;;;12.88;11.77;;;14.10;78.50;;;;;;5160885;28;20046;-69
2021/06/24 03:55:49;;;;;;;12.90;11.90;;;14.10;78.00;;;;;;5158796;28;20054;-69
2021/06/24 03:58:44;;;;;;;12.68;11.77;;;14.10;77.70;;;;;;5159872;28;20066;-71
2021/06/24 04:01:17;;;;;;;12.93;11.90;;;14.00;78.90;;;;;;5169311;28;20124;-70
2021/06/24 04:03:49;;;;;;;12.90;11.95;;;14.00;79.50;;;;;;5163686;28;20058;-69
2021/06/24 04:06:29;;;;;;;;;;;14.10;79.70;;;;;;5148558;28;20623;-70
2021/06/24 04:09:04;;;;;;;12.57;11.65;;;14.00;78.20;;;;;;5162599;28;19961;-70
2021/06/24 04:11:38;;;;;;;13.20;11.50;;;14.10;78.80;;;;;;5163038;28;20099;-70
2021/06/24 04:14:16;;;;;;;12.93;11.90;;;14.10;78.00;;;;;;5165695;28;20053;-70
2021/06/24 04:17:06;;;;;;;13.00;12.00;;;14.10;79.30;;;;;;5162625;28;20072;-70
2021/06/24 04:19:38;;;;;;;12.80;11.90;;;14.10;78.30;;;;;;5164308;28;20042;-70
2021/06/24 04:22:11;;;;;;;12.50;11.50;;;14.00;77.60;;;;;;5177885;28;20045;-70
2021/06/24 04:25:03;;;;;;;12.68;11.60;;;14.00;77.50;;;;;;5156602;28;20062;-70
2021/06/24 04:27:36;;;;;;;12.88;11.70;;;13.90;77.70;;;;;;5161849;28;20061;-70
2021/06/24 04:30:10;;;;;;;12.55;11.65;;;14.00;78.60;;;;;;5163474;28;20050;-71
2021/06/24 04:32:46;;;;;;;13.15;12.07;;;13.90;79.70;;;;;;5167394;28;20162;-70
2021/06/24 04:35:22;;;;;;;12.88;11.88;;;14.00;79.20;;;;;;5161856;28;20046;-70
2021/06/24 04:37:59;;;;;;;12.82;11.93;;;14.20;78.30;;;;;;5167146;28;20046;-70
2021/06/24 04:40:32;;;;;;;13.25;12.18;;;14.30;78.40;;;;;;5163294;28;20054;-71
2021/06/24 04:43:05;;;;;;;13.13;12.15;;;14.50;78.40;;;;;;5165130;28;20065;-71
2021/06/24 04:45:40;;;;;;;13.30;12.30;;;14.60;78.00;;;;;;5164031;28;20649;-70
2021/06/24 04:48:22;;;;;;;13.13;12.13;;;14.80;79.30;;;;;;5160332;28;20038;-71
2021/06/24 04:51:10;;;;;;;13.18;12.18;;;14.80;79.00;;;;;;5162256;28;20062;-70
2021/06/24 04:53:42;;;;;;;13.40;12.30;;;14.90;79.90;;;;;;5146149;28;20058;-71
2021/06/24 04:56:21;;;;;;;13.32;12.10;;;15.00;80.20;;;;;;5161526;28;20050;-71
2021/06/24 04:58:53;;;;;;;13.55;12.55;;;15.10;79.90;;;;;;5161703;28;20046;-71
2021/06/24 05:01:43;;;;;;;13.40;12.40;;;15.20;80.00;;;;;;5166384;28;20536;-72
2021/06/24 05:04:34;;;;;;;13.02;12.02;;;15.30;80.30;;;;;;5161726;28;20100;-72
2021/06/24 05:07:09;;;;;;;13.20;12.30;;;15.30;80.20;;;;;;5162061;28;20116;-72
2021/06/24 05:09:41;;;;;;;13.63;12.63;;;15.50;80.10;;;;;;5163083;28;20049;-72
2021/06/24 05:12:13;;;;;;;13.40;12.40;;;15.60;79.60;;;;;;5160640;28;20042;-71
2021/06/24 05:14:45;;;;;;;13.32;12.32;;;15.70;79.40;;;;;;5159943;28;20042;-72
2021/06/24 05:17:17;;;;;;;13.30;12.20;;;15.80;79.20;;;;;;5158653;28;20701;-72
2021/06/24 05:19:49;;;;;;;13.25;12.32;;;15.90;78.80;;;;;;5163522;28;20144;-72
2021/06/24 05:22:21;;;;;;;13.55;12.55;;;16.00;78.70;;;;;;5158835;28;20113;-72
2021/06/24 05:24:54;;;;;;;13.82;12.82;;;16.20;78.00;;;;;;5157668;28;20125;-72
2021/06/24 05:27:26;;;;;;;13.70;12.70;;;16.30;78.00;;;;;;5158604;28;20073;-72
2021/06/24 05:29:58;;;;;;;13.10;12.00;;;16.30;77.40;;;;;;5159711;28;20042;-72
2021/06/24 05:32:29;;;;;;;13.77;12.52;;;16.40;76.60;;;;;;5152701;28;20038;-72
2021/06/24 05:35:01;;;;;;;13.48;12.48;;;16.30;77.50;;;;;;5160698;28;20125;-74
2021/06/24 05:37:34;;;;;;;12.90;12.00;;;16.50;76.70;;;;;;5157459;28;20046;-72
2021/06/24 05:40:06;;;;;;;13.38;12.18;;;16.60;76.90;;;;;;5158554;28;20152;-72
2021/06/24 05:42:40;;;;;;;13.40;12.40;;;16.70;76.30;;;;;;5156419;28;20050;-72
2021/06/24 05:45:13;;;;;;;13.65;12.45;;;16.80;76.30;;;;;;5161900;28;20463;-72
2021/06/24 05:47:47;;;;;;;13.10;12.20;;;16.80;76.30;;;;;;5158237;28;20042;-72
2021/06/24 05:50:20;;;;;;;13.02;12.02;;;16.90;76.10;;;;;;5159701;28;20046;-72
2021/06/24 05:52:55;;;;;;;13.60;12.50;;;17.00;76.10;;;;;;5163148;28;20116;-72
2021/06/24 05:58:21;;;;;;;13.38;12.40;;;17.00;75.50;;;;;;5162817;28;20042;-72
2021/06/24 06:00:54;;;;;;;13.20;12.30;;;17.10;75.50;;;;;;5163282;28;20047;-72
2021/06/24 06:03:27;;;;;;;13.18;12.18;;;17.10;75.80;;;;;;5163440;28;20065;-72
2021/06/24 06:05:59;;;;;;;13.40;12.20;;;17.20;75.60;;;;;;5163165;28;20062;-73
2021/06/24 06:08:31;;;;;;;13.18;12.20;;;17.20;75.00;;;;;;5160635;28;20065;-73
2021/06/24 06:11:03;;;;;;;13.32;12.23;;;17.20;75.60;;;;;;5160523;28;20780;-75
2021/06/24 06:13:35;;;;;;;13.32;12.27;;;17.30;75.00;;;;;;5163093;28;20041;-75
2021/06/24 06:16:07;;;;;;;13.25;12.27;;;17.50;75.00;;;;;;5141913;28;20050;-74
2021/06/24 06:18:39;;;;;;;13.63;12.63;;;17.60;74.80;;;;;;5157571;28;20523;-76
2021/06/24 06:21:11;;;;;;;13.75;12.75;;;17.80;75.00;;;;;;5157654;28;20132;-76
2021/06/24 06:23:44;;;;;;;14.20;13.00;;;17.90;74.60;;;;;;5157668;28;20085;-75
2021/06/24 06:26:16;;;;;;;14.30;13.15;;;18.00;74.20;;;;;;5159820;28;20129;-75
2021/06/24 06:28:48;;;;;;;13.85;12.82;;;18.20;74.00;;;;;;5160021;28;20527;-76
2021/06/24 06:31:23;;;;;;;14.25;13.15;;;18.30;74.40;;;;;;5162444;28;20582;-76
2021/06/24 06:33:55;;;;;;;13.90;12.90;;;18.40;73.50;;;;;;5162263;28;20420;-76
2021/06/24 06:36:27;;;;;;;13.93;12.90;;;18.50;73.70;;;;;;5163770;28;20050;-76
2021/06/24 06:38:59;;;;;;;13.57;12.52;;;18.70;73.30;;;;;;5160269;28;20121;-76
2021/06/24 06:41:32;;;;;;;13.85;12.75;;;18.80;71.60;;;;;;5163210;28;20074;-77
2021/06/24 06:44:04;;;;;;;14.48;13.38;;;18.90;71.90;;;;;;5163348;28;20476;-76
2021/06/24 06:46:36;;;;;;;13.65;12.65;;;18.90;71.00;;;;;;5163267;28;20045;-76
2021/06/24 06:49:08;;;;;;;13.73;12.73;;;19.00;71.20;;;;;;5159835;28;20081;-76
2021/06/24 06:51:40;;;;;;;13.90;12.90;;;19.10;71.20;;;;;;5164965;28;20174;-77
2021/06/24 06:54:12;;;;;;;13.73;12.73;;;19.30;71.70;;;;;;5149250;28;20116;-76
2021/06/24 06:56:46;;;;;;;14.00;13.00;;;19.40;70.40;;;;;;5159429;28;20042;-76
2021/06/24 06:59:18;;;;;;;14.20;13.13;;;19.50;70.90;;;;;;5161069;28;20069;-77
2021/06/24 07:02:04;;;;;;;14.40;13.30;;;19.60;70.90;;;;;;5177162;28;20043;-77
2021/06/24 07:04:37;;;;;;;14.10;13.10;;;19.70;70.00;;;;;;5162369;28;20074;-77
2021/06/24 07:07:09;;;;;;;14.60;13.50;;;19.80;70.70;;;;;;5158560;28;20093;-77
2021/06/24 07:09:41;;;;;;;14.63;13.52;;;20.00;67.50;;;;;;5163024;28;20073;-78
2021/06/24 07:12:13;;;;;;;14.63;13.32;;;20.00;68.40;;;;;;5161793;28;20072;-77
2021/06/24 07:14:47;;;;;;;14.32;13.32;;;20.20;69.10;;;;;;5160653;28;20050;-76
2021/06/24 07:17:18;;;;;;;14.45;13.35;;;20.20;67.40;;;;;;5144957;28;20050;-77
2021/06/24 07:19:51;;;;;;;14.45;13.40;;;20.30;67.90;;;;;;5155533;28;20065;-77
2021/06/24 07:22:23;;;;;;;14.70;13.50;;;20.30;64.10;;;;;;5160742;28;20046;-77
2021/06/24 07:24:54;;;;;;;14.30;13.30;;;20.30;66.60;;;;;;5145439;28;20050;-77
2021/06/24 07:27:26;;;;;;;15.10;14.00;;;20.50;69.30;;;;;;5144969;28;20069;-77
2021/06/24 07:30:03;;;;;;;14.93;13.82;;;20.70;68.90;;;;;;5147368;28;20061;-77
2021/06/24 07:32:35;;;;;;;15.32;14.20;;;20.90;68.70;;;;;;5159952;28;20052;-78
2021/06/24 07:35:08;;;;;;;15.13;14.02;;;21.00;69.00;;;;;;5159961;28;20073;-78
2021/06/24 07:37:42;;;;;;;15.00;13.90;;;21.20;67.80;;;;;;5160279;28;20061;-77
2021/06/24 07:40:14;;;;;;;15.07;14.07;;;21.30;65.10;;;;;;5160543;28;20706;-77
2021/06/24 07:42:47;;;;;;;15.07;13.98;;;21.30;62.30;;;;;;5133770;28;20048;-77
2021/06/24 07:45:19;;;;;;;15.38;14.18;;;21.40;62.90;;;;;;5160479;28;20038;-78
2021/06/24 07:47:51;;;;;;;14.93;13.82;;;21.50;62.80;;;;;;5148572;28;20042;-78
2021/06/24 07:50:25;;;;;;;15.00;13.90;;;21.50;63.00;;;;;;5161448;28;20644;-77
2021/06/24 07:53:00;;;;;;;15.00;13.90;;;21.60;63.40;;;;;;5159709;28;20061;-77
2021/06/24 07:55:33;;;;;;;15.13;14.10;;;21.70;62.50;;;;;;5158488;28;20385;-78
2021/06/24 07:58:07;;;;;;;15.45;14.35;;;21.80;61.10;;;;;;5162772;28;20049;-77
2021/06/24 08:00:39;;;;;;;15.20;14.20;;;21.70;58.70;;;;;;5159469;28;20061;-77
2021/06/24 08:03:30;;;;;;;15.43;14.27;;;21.80;60.40;;;;;;5159909;28;20035;-77
2021/06/24 08:06:03;;;;;;;16.00;14.90;;;21.80;62.20;;;;;;5175282;28;20431;-78
2021/06/24 08:08:35;;;;;;;15.18;14.07;;;22.00;61.80;;;;;;5160824;28;20803;-78
2021/06/24 08:11:07;;;;;;;15.82;14.73;;;22.10;61.00;;;;;;5162664;28;20117;-77
2021/06/24 08:13:39;;;;;;;15.15;14.02;;;22.10;64.00;;;;;;5159207;28;20062;-77
2021/06/24 08:16:11;;;;;;;16.08;14.80;;;22.20;60.60;;;;;;5157886;28;20527;-76
2021/06/24 08:18:43;;;;;;;15.48;14.38;;;22.30;62.00;;;;;;5159067;28;20097;-76
2021/06/24 08:21:15;;;;;;;15.65;14.55;;;22.30;61.90;;;;;;5160690;28;20511;-77
2021/06/24 08:23:47;;;;;;;16.13;14.93;;;22.40;61.90;;;;;;5158830;28;20046;-78
2021/06/24 08:26:19;;;;;;;15.52;14.43;;;22.40;61.60;;;;;;5154465;28;20133;-77
2021/06/24 08:28:51;;;;;;;16.23;14.93;;;22.50;62.50;;;;;;5161959;28;20054;-76
2021/06/24 08:31:23;;;;;;;16.45;15.25;;;22.60;60.90;;;;;;5161198;28;20078;-76
2021/06/24 08:33:55;;;;;;;16.52;15.32;;;22.60;61.30;;;;;;5158404;28;20050;-77
2021/06/24 08:36:27;;;;;;;15.65;14.55;;;22.70;60.70;;;;;;5176305;28;20054;-77
2021/06/24 08:39:02;;;;;;;15.70;14.60;;;22.80;61.50;;;;;;5160527;28;20739;-77
2021/06/24 08:41:36;;;;;;;16.10;14.93;;;23.00;61.90;;;;;;5175476;28;20047;-77
2021/06/24 08:44:08;;;;;;;15.65;14.55;;;23.20;61.70;;;;;;5161465;28;20085;-76
2021/06/24 08:46:40;;;;;;;15.90;14.80;;;23.10;61.40;;;;;;5162359;28;20132;-75
2021/06/24 08:49:15;;;;;;;16.20;15.00;;;23.20;61.80;;;;;;5162432;28;20037;-75
2021/06/24 08:51:56;;;;;;;16.42;15.23;;;23.10;63.00;;;;;;5166859;28;20062;-77
2021/06/24 08:54:28;;;;;;;16.80;15.60;;;23.10;61.10;;;;;;5165171;28;20045;-76
2021/06/24 08:57:04;;;;;;;16.27;15.18;;;23.30;61.90;;;;;;5159181;28;20047;-76
2021/06/24 08:59:35;;;;;;;16.27;15.07;;;23.20;62.50;;;;;;5150537;28;20096;-74
2021/06/24 09:02:12;;;;;;;16.63;15.43;;;23.30;61.10;;;;;;5162347;28;20046;-75
2021/06/24 09:04:46;;;;;;;16.55;15.25;;;23.40;62.40;;;;;;5161626;28;20046;-74
2021/06/24 09:07:22;;;;;;;16.40;15.10;;;23.40;62.40;;;;;;5168479;28;20042;-76
2021/06/24 09:09:56;;;;;;;16.10;14.90;;;23.40;62.00;;;;;;5162248;28;20121;-75
2021/06/24 09:12:28;;;;;;;16.17;14.98;;;23.30;62.10;;;;;;5162028;28;20046;-75
2021/06/24 09:15:01;;;;;;;16.02;14.93;;;23.30;61.70;;;;;;5161996;28;20582;-75
2021/06/24 09:17:33;;;;;;;16.40;15.20;;;23.40;63.00;;;;;;5160985;28;20046;-76
2021/06/24 09:20:19;;;;;;;16.40;15.20;;;23.30;63.30;;;;;;5163224;28;20089;-75
2021/06/24 09:23:17;;;;;;;16.55;15.38;;;23.30;61.80;;;;;;5160232;28;20580;-76
2021/06/24 09:26:14;;;;;;;16.88;15.57;;;23.40;61.50;;;;;;5163798;28;20038;-76
2021/06/24 09:28:52;;;;;;;16.33;15.13;;;23.50;61.40;;;;;;5146082;28;20049;-76
2021/06/24 09:31:30;;;;;;;16.63;15.40;;;23.70;60.60;;;;;;5163276;28;20603;-76
2021/06/24 09:34:08;;;;;;;16.15;15.05;;;23.60;60.50;;;;;;5161266;28;20045;-76
2021/06/24 09:36:48;;;;;;;16.15;15.05;;;23.60;61.60;;;;;;5162725;28;20533;-76
2021/06/24 09:39:21;;;;;;;15.95;14.85;;;23.50;62.90;;;;;;5165020;28;20574;-76
2021/06/24 09:42:07;;;;;;;15.90;14.80;;;23.40;62.60;;;;;;5162370;28;20054;-76
2021/06/24 09:44:41;;;;;;;15.80;14.52;;;23.20;59.60;;;;;;5159486;28;20058;-74
2021/06/24 09:47:25;;;;;;;16.15;15.05;;;23.00;59.90;;;;;;5161196;28;20384;-76
2021/06/24 09:49:58;;;;;;;16.60;15.40;;;22.60;60.30;;;;;;5163304;28;20030;-75
2021/06/24 09:52:31;;;;;;;16.58;15.35;;;22.40;61.10;;;;;;5161908;28;20049;-75
2021/06/24 09:55:13;;;;;;;16.58;15.38;;;22.30;63.50;;;;;;5158166;28;20038;-75
2021/06/24 09:57:51;;;;;;;16.08;14.88;;;22.30;61.90;;;;;;5162579;28;20053;-75
2021/06/24 10:00:28;;;;;;;15.98;14.88;;;22.40;61.60;;;;;;5160560;28;20496;-76
2021/06/24 10:03:06;;;;;;;16.45;15.15;;;22.20;61.20;;;;;;5160459;28;20053;-76
2021/06/24 10:05:40;;;;;;;16.38;15.18;;;22.00;61.30;;;;;;5164676;28;20074;-75
2021/06/24 10:08:13;;;;;;;15.95;14.75;;;22.00;62.20;;;;;;5161137;28;20038;-75
2021/06/24 10:10:45;;;;;;;16.92;15.63;;;22.00;62.70;;;;;;5160512;28;20053;-75
2021/06/24 10:13:17;;;;;;;16.75;15.43;;;22.10;61.70;;;;;;5161680;28;20413;-75
2021/06/24 10:15:49;;;;;;;16.33;15.13;;;22.20;61.00;;;;;;5162214;28;20141;-75
2021/06/24 10:18:24;;;;;;;16.05;14.95;;;22.40;60.40;;;;;;5163585;28;20313;-75
2021/06/24 10:20:57;;;;;;;16.05;14.85;;;22.50;59.60;;;;;;5162169;28;20089;-75
2021/06/24 10:23:29;;;;;;;15.95;14.75;;;22.70;58.70;;;;;;5161148;28;20125;-74
2021/06/24 10:26:03;;;;;;;16.33;15.07;;;22.50;59.50;;;;;;5159309;28;20049;-73
2021/06/24 10:28:35;;;;;;;16.08;14.88;;;22.40;58.30;;;;;;5161437;28;20120;-75
2021/06/24 10:31:06;;;;;;;16.23;14.93;;;22.20;58.50;;;;;;5143455;28;20516;-75
2021/06/24 10:33:55;;;;;;;16.25;15.13;;;22.10;59.90;;;;;;5160590;28;20050;-74
2021/06/24 10:36:27;;;;;;;15.68;14.57;;;22.20;61.70;;;;;;5162239;28;20105;-76
2021/06/24 10:39:01;;;;;;;15.68;14.57;;;22.10;60.20;;;;;;5160647;28;20427;-77
2021/06/24 10:41:59;;;;;;;16.27;15.07;;;22.10;59.90;;;;;;5160110;28;20460;-76
2021/06/24 10:44:51;;;;;;;16.13;14.90;;;22.20;60.50;;;;;;5155136;28;20078;-78
2021/06/24 10:47:31;;;;;;;16.23;15.02;;;22.40;60.60;;;;;;5174530;28;20039;-77
2021/06/24 10:50:26;;;;;;;15.98;14.88;;;22.70;60.70;;;;;;5172816;28;20084;-76
2021/06/24 10:53:19;;;;;;;15.90;14.63;;;22.90;58.30;;;;;;5153004;28;20706;-76
2021/06/24 10:55:51;;;;;;;15.60;14.50;;;22.90;55.70;;;;;;5159831;28;20136;-76
2021/06/24 10:58:30;;;;;;;16.20;15.05;;;23.00;58.90;;;;;;5144640;28;20129;-76
2021/06/24 11:01:02;;;;;;;16.08;14.88;;;22.90;58.80;;;;;;5160884;28;20629;-77
2021/06/24 11:03:40;;;;;;;15.35;14.25;;;22.80;57.40;;;;;;5160104;28;20117;-76
2021/06/24 11:06:23;;;;;;;15.77;14.57;;;22.80;57.90;;;;;;5159961;28;20050;-75
2021/06/24 11:09:12;;;;;;;15.27;14.18;;;22.80;57.20;;;;;;5162712;28;20624;-76
2021/06/24 11:11:45;;;;;;;15.52;14.43;;;22.80;57.10;;;;;;5160632;28;20050;-76
2021/06/24 11:15:08;;;;;;;15.43;14.32;;;22.80;55.10;;;;;;5163222;28;20120;-76
2021/06/24 11:17:45;;;;;;;15.88;14.77;;;22.90;56.90;;;;;;5160223;28;20093;-76
2021/06/24 11:20:19;;;;;;;15.52;14.43;;;23.00;54.40;;;;;;5159564;28;21420;-77
2021/06/24 11:22:52;;;;;;;16.58;15.18;;;23.10;55.60;;;;;;5158689;28;20125;-75
2021/06/24 11:25:24;;;;;;;15.88;14.77;;;23.10;57.50;;;;;;5159977;28;20089;-75
2021/06/24 11:28:35;;;;;;;15.52;14.32;;;23.20;59.50;;;;;;5160626;28;20037;-75
2021/06/24 11:31:07;;;;;;;15.38;14.27;;;23.40;55.20;;;;;;5174112;28;20045;-76
2021/06/24 11:34:25;;;;;;;16.05;14.95;;;23.60;56.90;;;;;;5162017;28;20046;-76
2021/06/24 11:36:49;;;;;;;16.27;15.18;;;23.80;57.50;;;;;;5155776;28;20061;-76
2021/06/24 11:39:37;;;;;;;16.10;15.00;;;24.00;57.20;;;;;;5160161;28;20112;-76
2021/06/24 11:42:15;;;;;;;16.45;15.35;;;23.90;58.20;;;;;;5161412;28;20050;-75
2021/06/24 11:44:51;;;;;;;16.40;15.30;;;23.80;57.60;;;;;;5161166;28;20108;-77
2021/06/24 11:47:26;;;;;;;16.10;15.00;;;23.70;57.90;;;;;;5158797;28;20050;-76
2021/06/24 12:04:22;;;;;;;16.42;15.23;;;24.30;58.70;;;;;;5161963;28;20035;-77
2021/06/24 12:07:00;;;;;;;16.55;15.35;;;24.30;59.40;;;;;;5160068;28;20097;-76
2021/06/24 12:09:40;;;;;;;16.45;15.30;;;24.40;56.40;;;;;;5158629;28;20046;-76
2021/06/24 12:12:18;;;;;;;16.17;15.07;;;24.50;56.30;;;;;;5159491;28;20045;-76
2021/06/24 12:14:53;;;;;;;16.17;15.07;;;24.40;54.80;;;;;;5160913;28;20049;-76
2021/06/24 12:17:36;;;;;;;15.90;14.80;;;24.30;57.40;;;;;;5160456;28;20070;-76
2021/06/24 12:20:17;;;;;;;16.25;15.15;;;24.10;56.50;;;;;;5164469;28;20054;-76
2021/06/24 12:23:07;;;;;;;16.52;15.32;;;24.20;56.30;;;;;;5163875;28;20137;-76
2021/06/24 12:25:46;;;;;;;;;;;24.30;56.80;;;;;;5163352;28;20062;-76
2021/06/24 12:28:18;;;;;;;16.23;15.02;;;24.50;53.60;;;;;;5159149;28;19931;-77
2021/06/24 12:30:51;;;;;;;17.05;15.65;;;24.40;53.30;;;;;;5127680;28;20117;-76
2021/06/24 12:33:29;;;;;;;16.20;15.00;;;24.20;53.10;;;;;;5162838;28;20739;-74
2021/06/24 12:36:01;;;;;;;17.40;16.10;;;24.00;53.60;;;;;;5162899;28;20052;-75
2021/06/24 12:38:34;;;;;;;16.70;15.50;;;24.00;54.70;;;;;;5159748;28;20066;-76
2021/06/24 12:41:10;;;;;;;16.60;15.40;;;23.80;55.20;;;;;;5160016;28;20047;-75
2021/06/24 12:43:42;;;;;;;16.55;15.35;;;24.00;54.90;;;;;;5150257;28;20053;-75
2021/06/24 12:46:15;;;;;;;16.90;15.70;;;24.20;56.10;;;;;;5159028;28;20096;-75
2021/06/24 12:48:49;;;;;;;16.33;15.23;;;24.30;54.80;;;;;;5158731;28;20456;-76
2021/06/24 12:51:23;;;;;;;16.75;15.57;;;24.40;51.90;;;;;;5157173;28;20042;-76
2021/06/24 12:53:55;;;;;;;17.35;16.05;;;24.60;51.90;;;;;;5162288;28;20112;-74
2021/06/24 12:56:32;;;;;;;17.20;16.00;;;24.70;52.70;;;;;;5156009;28;20774;-75
2021/06/24 12:59:10;;;;;;;17.58;16.13;;;24.80;51.60;;;;;;5159820;28;20112;-75
2021/06/24 13:01:43;;;;;;;17.05;15.85;;;24.80;51.90;;;;;;5173459;28;20157;-75
2021/06/24 13:04:18;;;;;;;17.17;15.95;;;24.80;51.80;;;;;;5163506;28;20497;-76
2021/06/24 13:06:53;;;;;;;16.98;15.65;;;24.90;53.60;;;;;;5158333;28;20104;-75
2021/06/24 13:09:32;;;;;;;17.17;15.98;;;25.00;52.60;;;;;;5159121;28;20488;-75
2021/06/24 13:12:08;;;;;;;17.83;16.35;;;25.10;53.10;;;;;;5158308;28;20046;-74
2021/06/24 13:14:42;;;;;;;17.10;15.90;;;25.20;52.10;;;;;;5164260;28;20043;-77
2021/06/24 13:17:15;;;;;;;17.63;16.20;;;25.40;51.50;;;;;;5156934;28;20114;-74
2021/06/24 13:19:56;;;;;;;17.70;16.20;;;25.50;50.90;;;;;;5159418;28;20120;-75
2021/06/24 13:22:30;;;;;;;17.67;16.27;;;25.50;51.50;;;;;;5158180;28;20550;-75
2021/06/24 13:25:05;;;;;;;17.25;16.05;;;25.60;51.10;;;;;;5152885;28;20054;-75
2021/06/24 13:27:40;;;;;;;17.23;16.02;;;25.60;52.20;;;;;;5160152;28;20145;-74
2021/06/24 13:30:16;;;;;;;17.75;16.35;;;25.70;51.00;;;;;;5160707;28;20046;-75